createdAt,value
2022-10-28T00:01:15.317Z,100.00
2022-10-28T00:03:44.963Z,100.00
2022-10-28T00:06:15.812Z,100.00
2022-10-28T00:08:44.151Z,100.00
2022-10-28T00:11:15.096Z,100.00
2022-10-28T00:13:45.562Z,100.00
2022-10-28T00:16:15.980Z,100.00
2022-10-28T00:18:44.818Z,100.00
2022-10-28T00:21:14.960Z,100.00
2022-10-28T00:23:43.792Z,100.00
2022-10-28T00:26:15.567Z,100.00
2022-10-28T00:28:44.959Z,100.00
2022-10-28T00:31:14.419Z,100.00
2022-10-28T00:33:42.938Z,100.00
2022-10-28T00:36:14.037Z,100.00
2022-10-28T00:38:43.276Z,100.00
2022-10-28T00:41:12.774Z,100.00
2022-10-28T00:43:44.966Z,100.00
2022-10-28T00:46:19.725Z,100.00
2022-10-28T00:48:52.300Z,100.00
2022-10-28T00:51:23.701Z,100.00
2022-10-28T00:53:54.127Z,100.00
2022-10-28T00:56:24.253Z,100.00
2022-10-28T00:58:57.489Z,100.00
2022-10-28T01:01:25.698Z,100.00
2022-10-28T01:03:55.024Z,100.00
2022-10-28T01:06:23.731Z,100.00
2022-10-28T01:08:54.859Z,100.00
2022-10-28T01:11:41.701Z,100.00
2022-10-28T01:14:32.686Z,100.00
2022-10-28T01:17:23.723Z,100.00
2022-10-28T01:20:41.775Z,100.00
2022-10-28T01:23:17.425Z,100.00
2022-10-28T01:26:07.719Z,100.00
2022-10-28T01:29:03.961Z,100.00
2022-10-28T01:31:42.053Z,100.00
2022-10-28T01:34:17.433Z,100.00
2022-10-28T01:36:57.608Z,100.00
2022-10-28T01:39:34.708Z,100.00
2022-10-28T01:42:15.302Z,100.00
2022-10-28T01:44:50.396Z,100.00
2022-10-28T01:47:23.855Z,100.00
2022-10-28T01:49:58.056Z,100.00
2022-10-28T01:52:28.759Z,100.00
2022-10-28T01:55:02.696Z,100.00
2022-10-28T01:57:34.035Z,100.00
2022-10-28T02:00:03.213Z,100.00
2022-10-28T02:02:35.421Z,100.00
2022-10-28T02:05:28.472Z,100.00
2022-10-28T02:08:04.942Z,100.00
2022-10-28T02:10:43.911Z,100.00
2022-10-28T02:13:15.731Z,100.00
2022-10-28T02:15:53.358Z,100.00
2022-10-28T02:18:28.394Z,100.00
2022-10-28T02:21:00.797Z,100.00
2022-10-28T02:23:41.406Z,100.00
2022-10-28T02:26:16.827Z,100.00
2022-10-28T02:28:51.753Z,100.00
2022-10-28T02:31:24.894Z,100.00
2022-10-28T02:33:59.969Z,100.00
2022-10-28T02:36:31.635Z,100.00
2022-10-28T02:39:02.284Z,100.00
2022-10-28T02:41:36.125Z,100.00
2022-10-28T02:44:07.753Z,100.00
2022-10-28T02:46:38.372Z,100.00
2022-10-28T02:49:10.492Z,100.00
2022-10-28T02:51:42.643Z,100.00
2022-10-28T02:54:14.787Z,100.00
2022-10-28T02:56:50.784Z,100.00
2022-10-28T02:59:18.921Z,100.00
2022-10-28T03:01:47.100Z,100.00
2022-10-28T03:04:16.666Z,100.00
2022-10-28T03:06:44.683Z,100.00
2022-10-28T03:09:12.900Z,100.00
2022-10-28T03:11:40.894Z,100.00
2022-10-28T03:14:10.769Z,100.00
2022-10-28T03:16:41.401Z,100.00
2022-10-28T03:21:38.863Z,100.00
2022-10-28T03:24:07.422Z,100.00
2022-10-28T03:26:35.483Z,100.00
2022-10-28T03:29:03.483Z,100.00
2022-10-28T03:31:31.858Z,100.00
2022-10-28T03:34:00.103Z,100.00
2022-10-28T03:36:28.241Z,100.00
2022-10-28T03:38:57.649Z,100.00
2022-10-28T03:41:25.724Z,100.00
2022-10-28T03:43:53.725Z,100.00
2022-10-28T03:46:21.819Z,100.00
2022-10-28T03:48:49.779Z,100.00
2022-10-28T03:51:17.843Z,100.00
2022-10-28T03:53:45.825Z,100.00
2022-10-28T03:56:15.316Z,100.00
2022-10-28T03:58:43.390Z,100.00
2022-10-28T04:01:11.590Z,100.00
2022-10-28T04:03:39.760Z,100.00
2022-10-28T04:06:10.040Z,100.00
2022-10-28T04:08:38.054Z,100.00
2022-10-28T04:11:06.395Z,100.00
2022-10-28T04:13:36.202Z,100.00
2022-10-28T04:16:04.289Z,100.00
2022-10-28T04:18:32.306Z,100.00
2022-10-28T04:21:00.334Z,100.00
2022-10-28T04:23:28.333Z,100.00
2022-10-28T04:25:56.693Z,100.00
2022-10-28T04:28:25.665Z,100.00
2022-10-28T04:30:55.525Z,100.00
2022-10-28T04:33:26.971Z,100.00
2022-10-28T06:06:06.992Z,100.00
2022-10-28T06:13:57.720Z,100.00
2022-10-28T06:16:27.191Z,100.00
2022-10-28T06:18:55.421Z,100.00
2022-10-28T06:21:24.973Z,100.00
2022-10-28T06:23:53.167Z,100.00
2022-10-28T06:26:21.544Z,100.00
2022-10-28T06:28:49.721Z,100.00
2022-10-28T06:31:17.777Z,100.00
2022-10-28T06:33:47.272Z,100.00
2022-10-28T06:36:24.676Z,100.00
2022-10-28T06:38:53.194Z,100.00
2022-10-28T06:41:42.659Z,100.00
2022-10-28T06:44:16.971Z,100.00
2022-10-28T06:46:46.670Z,100.00
2022-10-28T06:49:16.149Z,100.00
2022-10-28T06:51:44.178Z,100.00
2022-10-28T06:54:12.236Z,100.00
2022-10-28T06:56:51.153Z,100.00
2022-10-28T06:59:19.299Z,100.00
2022-10-28T07:01:47.491Z,100.00
2022-10-28T07:04:17.140Z,100.00
2022-10-28T07:06:49.846Z,100.00
2022-10-28T07:10:14.588Z,100.00
2022-10-28T07:12:42.717Z,100.00
2022-10-28T07:15:11.898Z,100.00
2022-10-28T07:17:39.877Z,100.00
2022-10-28T07:20:10.635Z,100.00
2022-10-28T07:22:38.616Z,100.00
2022-10-28T07:25:07.515Z,100.00
2022-10-28T07:27:35.499Z,100.00
2022-10-28T07:30:03.508Z,100.00
2022-10-28T07:32:33.688Z,100.00
2022-10-28T07:35:01.645Z,100.00
2022-10-28T07:37:31.056Z,100.00
2022-10-28T07:39:59.060Z,100.00
2022-10-28T07:42:27.114Z,100.00
2022-10-28T07:44:55.145Z,100.00
2022-10-28T07:47:49.842Z,100.00
2022-10-28T07:50:18.693Z,100.00
2022-10-28T07:52:48.060Z,100.00
2022-10-28T07:55:16.124Z,100.00
2022-10-28T07:57:44.086Z,100.00
2022-10-28T08:00:12.755Z,100.00
2022-10-28T08:02:40.861Z,100.00
2022-10-28T08:05:09.447Z,100.00
2022-10-28T08:07:38.870Z,100.00
2022-10-28T08:10:09.694Z,100.00
2022-10-28T08:12:37.752Z,100.00
2022-10-28T08:15:06.795Z,100.00
2022-10-28T08:18:05.617Z,100.00
2022-10-28T08:20:33.633Z,100.00
2022-10-28T08:23:04.022Z,100.00
2022-10-28T08:25:36.106Z,100.00
2022-10-28T08:28:04.080Z,100.00
2022-10-28T08:30:40.419Z,100.00
2022-10-28T08:33:19.252Z,100.00
2022-10-28T08:35:51.576Z,100.00
2022-10-28T08:38:20.307Z,100.00
2022-10-28T08:40:59.744Z,99.58
2022-10-28T08:43:46.334Z,92.92
2022-10-28T08:46:29.434Z,92.26
2022-10-28T08:48:57.995Z,93.57
2022-10-28T08:51:37.846Z,97.79
2022-10-28T08:54:12.957Z,95.33
2022-10-28T08:56:46.267Z,90.96
2022-10-28T08:59:18.841Z,99.05
2022-10-28T09:01:49.531Z,90.88
2022-10-28T09:04:25.432Z,89.37
2022-10-28T09:06:53.930Z,92.87
2022-10-28T09:09:23.801Z,94.46
2022-10-28T09:12:12.577Z,92.18
2022-10-28T09:14:56.279Z,90.72
2022-10-28T09:17:36.039Z,85.73
2022-10-28T09:20:13.809Z,84.78
2022-10-28T09:22:51.786Z,84.52
2022-10-28T09:25:25.569Z,83.89
2022-10-28T09:28:18.257Z,82.34
2022-10-28T09:30:55.433Z,83.22
2022-10-28T09:33:43.089Z,82.92
2022-10-28T09:36:17.211Z,84.62
2022-10-28T09:39:06.553Z,83.30
2022-10-28T09:41:39.558Z,86.94
2022-10-28T09:44:16.976Z,84.85
2022-10-28T09:46:48.071Z,85.50
2022-10-28T09:49:22.229Z,88.18
2022-10-28T09:51:56.826Z,90.08
2022-10-28T09:54:33.487Z,87.45
2022-10-28T09:57:01.941Z,89.02
2022-10-28T09:59:31.969Z,85.37
2022-10-28T10:02:00.083Z,88.59
2022-10-28T10:04:31.349Z,85.11
2022-10-28T10:07:04.644Z,87.73
2022-10-28T10:09:34.419Z,84.03
2022-10-28T10:12:06.460Z,81.92
2022-10-28T10:14:42.731Z,84.18
2022-10-28T10:17:16.968Z,85.19
2022-10-28T10:20:08.131Z,82.95
2022-10-28T10:22:37.982Z,80.71
2022-10-28T10:25:25.310Z,77.91
2022-10-28T10:27:57.701Z,76.01
2022-10-28T10:30:30.704Z,74.17
2022-10-28T10:32:59.346Z,64.05
2022-10-28T10:35:29.990Z,63.37
2022-10-28T10:38:00.413Z,61.86
2022-10-28T10:40:32.539Z,63.10
2022-10-28T10:43:21.038Z,73.13
2022-10-28T10:45:54.806Z,62.16
2022-10-28T10:48:22.838Z,63.51
2022-10-28T10:50:51.696Z,66.57
2022-10-28T10:53:25.995Z,74.85
2022-10-28T10:55:57.864Z,73.63
2022-10-28T10:58:29.235Z,61.28
2022-10-28T11:01:01.824Z,65.91
2022-10-28T11:03:34.850Z,70.27
2022-10-28T11:06:23.442Z,64.05
2022-10-28T11:08:58.110Z,74.16
2022-10-28T11:11:34.209Z,62.06
2022-10-28T11:14:08.722Z,58.10
2022-10-28T11:16:51.047Z,60.63
2022-10-28T11:19:22.990Z,56.75
2022-10-28T11:22:03.844Z,64.84
2022-10-28T11:24:53.704Z,64.41
2022-10-28T11:27:33.295Z,64.89
2022-10-28T11:30:02.470Z,67.58
2022-10-28T11:33:01.824Z,59.65
2022-10-28T11:35:58.521Z,58.84
2022-10-28T11:38:48.380Z,60.98
2022-10-28T11:41:27.510Z,58.93
2022-10-28T11:44:03.847Z,66.83
2022-10-28T11:46:45.054Z,60.76
2022-10-28T11:49:38.222Z,58.06
2022-10-28T11:52:20.549Z,67.37
2022-10-28T11:55:03.715Z,58.69
2022-10-28T11:57:45.024Z,62.67
2022-10-28T12:00:33.172Z,62.59
2022-10-28T12:03:19.918Z,57.71
2022-10-28T12:05:54.880Z,59.75
2022-10-28T12:08:38.983Z,58.85
2022-10-28T12:11:19.810Z,62.89
2022-10-28T12:13:55.587Z,63.40
2022-10-28T12:16:31.618Z,63.09
2022-10-28T12:19:03.996Z,66.41
2022-10-28T12:21:36.772Z,59.56
2022-10-28T12:24:08.226Z,65.99
2022-10-28T12:26:42.145Z,62.03
2022-10-28T12:29:18.888Z,62.11
2022-10-28T12:31:50.303Z,61.33
2022-10-28T12:34:26.143Z,58.91
2022-10-28T12:37:02.211Z,60.96
2022-10-28T12:39:36.188Z,60.78
2022-10-28T12:42:14.040Z,60.71
2022-10-28T12:44:43.085Z,52.41
2022-10-28T12:47:20.573Z,54.47
2022-10-28T12:50:06.739Z,59.03
2022-10-28T12:52:41.916Z,59.80
2022-10-28T12:55:20.679Z,57.75
2022-10-28T12:57:55.274Z,56.45
2022-10-28T13:00:27.671Z,57.01
2022-10-28T13:03:01.637Z,58.34
2022-10-28T13:05:37.660Z,58.48
2022-10-28T13:08:28.232Z,50.06
2022-10-28T13:11:19.303Z,55.47
2022-10-28T13:13:54.141Z,49.61
2022-10-28T13:16:49.416Z,46.57
2022-10-28T13:19:49.222Z,48.73
2022-10-28T13:22:54.168Z,51.66
2022-10-28T13:25:39.632Z,47.27
2022-10-28T13:28:17.577Z,49.80
2022-10-28T13:30:57.087Z,45.14
2022-10-28T13:33:29.762Z,44.81
2022-10-28T13:36:11.939Z,46.50
2022-10-28T13:38:43.198Z,43.71
2022-10-28T13:41:37.623Z,49.80
2022-10-28T13:44:28.645Z,49.43
2022-10-28T13:47:31.397Z,45.85
2022-10-28T13:50:35.046Z,47.10
2022-10-28T13:53:46.287Z,43.08
2022-10-28T13:56:40.035Z,41.16
2022-10-28T13:59:23.835Z,40.76
2022-10-28T14:02:34.419Z,44.57
2022-10-28T14:05:06.698Z,42.13
2022-10-28T14:07:38.258Z,40.17
2022-10-28T14:10:23.706Z,42.98
2022-10-28T14:12:57.479Z,43.42
2022-10-28T14:15:27.985Z,44.46
2022-10-28T14:18:16.088Z,47.10
2022-10-28T14:20:59.257Z,51.44
2022-10-28T14:24:14.381Z,50.35
2022-10-28T14:27:30.990Z,49.14
2022-10-28T14:30:24.046Z,50.29
2022-10-28T14:33:00.726Z,49.45
2022-10-28T14:35:34.905Z,48.58
2022-10-28T14:38:33.252Z,49.81
2022-10-28T14:41:27.335Z,50.86
2022-10-28T14:44:07.059Z,52.32
2022-10-28T14:46:48.950Z,55.70
2022-10-28T14:51:53.520Z,54.12
2022-10-28T14:54:38.022Z,52.67
2022-10-28T14:57:09.603Z,56.82
2022-10-28T14:59:48.064Z,55.34
2022-10-28T15:02:39.250Z,51.67
2022-10-28T15:05:33.575Z,50.39
2022-10-28T15:08:04.717Z,50.62
2022-10-28T15:10:37.470Z,52.94
2022-10-28T15:13:10.153Z,51.17
2022-10-28T15:19:56.012Z,57.21
2022-10-28T15:22:25.512Z,52.72
2022-10-28T15:24:55.757Z,53.68
2022-10-28T15:27:25.165Z,55.63
2022-10-28T15:29:54.377Z,52.84
2022-10-28T15:32:33.794Z,55.09
2022-10-28T15:35:26.974Z,57.03
2022-10-28T15:37:56.560Z,58.97
2022-10-28T15:40:30.768Z,61.27
2022-10-28T15:43:00.927Z,60.16
2022-10-28T15:45:31.146Z,61.29
2022-10-28T15:48:04.635Z,60.84
2022-10-28T15:50:36.790Z,60.69
2022-10-28T15:53:35.177Z,60.60
2022-10-28T15:56:25.094Z,60.28
2022-10-28T15:59:09.271Z,59.92
2022-10-28T16:01:39.666Z,62.16
2022-10-28T16:04:52.285Z,61.43
2022-10-28T16:07:21.989Z,62.18
2022-10-28T16:09:52.161Z,62.96
2022-10-28T16:12:23.543Z,63.19
2022-10-28T16:14:57.342Z,63.92
2022-10-28T16:17:27.857Z,65.20
2022-10-28T16:20:50.652Z,67.55
2022-10-28T16:23:22.742Z,67.82
2022-10-28T16:25:51.131Z,69.71
2022-10-28T16:28:23.745Z,68.51
2022-10-28T16:30:54.745Z,68.73
2022-10-28T16:33:29.135Z,69.55
2022-10-28T16:35:57.932Z,70.07
2022-10-28T16:38:27.901Z,72.09
2022-10-28T16:40:56.158Z,72.12
2022-10-28T16:43:25.821Z,72.36
2022-10-28T16:45:55.598Z,69.22
2022-10-28T16:48:26.075Z,68.67
2022-10-28T16:50:58.537Z,67.87
2022-10-28T16:53:28.213Z,67.24
2022-10-28T16:55:59.173Z,67.91
2022-10-28T16:58:27.927Z,67.09
2022-10-28T17:00:56.682Z,68.15
2022-10-28T17:03:24.798Z,68.47
2022-10-28T17:05:52.918Z,68.14
2022-10-28T17:08:36.436Z,67.15
2022-10-28T17:11:16.322Z,66.33
2022-10-28T17:13:44.362Z,66.79
2022-10-28T17:16:13.136Z,65.37
2022-10-28T17:18:42.543Z,66.94
2022-10-28T17:21:10.635Z,67.21
2022-10-28T17:23:41.119Z,67.37
2022-10-28T17:26:11.115Z,67.28
2022-10-28T17:28:39.204Z,64.55
2022-10-28T17:31:08.914Z,65.17
2022-10-28T17:33:36.993Z,65.63
2022-10-28T17:36:06.414Z,67.33
2022-10-28T17:38:34.555Z,67.90
2022-10-28T17:41:03.041Z,69.51
2022-10-28T17:43:33.055Z,70.93
2022-10-28T17:46:08.326Z,70.53
2022-10-28T17:48:36.398Z,70.70
2022-10-28T17:51:04.565Z,70.52
2022-10-28T17:53:32.615Z,69.51
2022-10-28T17:56:02.185Z,70.18
2022-10-28T17:58:30.377Z,71.31
2022-10-28T18:01:01.448Z,70.70
2022-10-28T18:03:33.998Z,70.10
2022-10-28T18:06:07.111Z,71.26
2022-10-28T18:08:36.055Z,72.04
2022-10-28T18:11:05.115Z,72.19
2022-10-28T18:13:35.378Z,72.02
2022-10-28T18:16:07.389Z,72.54
2022-10-28T18:18:40.983Z,71.79
2022-10-28T18:21:11.677Z,71.40
2022-10-28T18:23:41.265Z,71.16
2022-10-28T18:26:12.486Z,71.28
2022-10-28T18:28:41.687Z,69.81
2022-10-28T18:31:14.244Z,69.83
2022-10-28T18:33:43.426Z,69.92
2022-10-28T18:36:13.778Z,68.77
2022-10-28T18:38:42.312Z,69.63
2022-10-28T18:41:12.387Z,69.98
2022-10-28T18:43:40.954Z,70.43
2022-10-28T18:46:10.923Z,71.08
2022-10-28T18:48:39.726Z,69.02
2022-10-28T18:51:11.399Z,67.97
2022-10-28T18:53:41.496Z,69.31
2022-10-28T18:56:11.942Z,68.43
2022-10-28T18:58:40.104Z,72.02
2022-10-28T19:01:11.626Z,72.39
2022-10-28T19:03:40.426Z,72.53
2022-10-28T19:06:11.073Z,72.60
2022-10-28T19:08:39.751Z,74.39
2022-10-28T19:11:09.023Z,76.09
2022-10-28T19:13:39.117Z,77.16
2022-10-28T19:16:08.699Z,77.81
2022-10-28T19:18:38.587Z,79.24
2022-10-28T19:21:10.789Z,80.11
2022-10-28T19:23:38.941Z,80.35
2022-10-28T19:26:08.186Z,80.73
2022-10-28T19:28:39.967Z,81.33
2022-10-28T19:31:09.921Z,80.84
2022-10-28T19:33:39.538Z,79.11
2022-10-28T19:36:12.442Z,79.45
2022-10-28T19:38:40.500Z,80.16
2022-10-28T19:41:10.390Z,80.40
2022-10-28T19:43:38.666Z,80.26
2022-10-28T19:46:10.356Z,81.70
2022-10-28T19:48:41.665Z,82.23
2022-10-28T19:51:13.225Z,82.10
2022-10-28T19:53:41.505Z,80.62
2022-10-28T19:56:09.744Z,79.93
2022-10-28T19:58:37.952Z,80.72
2022-10-28T20:01:09.322Z,79.08
2022-10-28T20:03:39.245Z,78.02
2022-10-28T20:06:10.885Z,76.99
2022-10-28T20:08:43.564Z,77.89
2022-10-28T20:11:13.612Z,78.71
2022-10-28T20:13:42.416Z,80.75
2022-10-28T20:16:13.469Z,79.15
2022-10-28T20:18:42.096Z,78.83
2022-10-28T20:21:14.891Z,79.89
2022-10-28T20:23:43.423Z,79.88
2022-10-28T20:26:16.919Z,79.62
2022-10-28T20:28:45.016Z,78.49
2022-10-28T20:31:15.226Z,80.02
2022-10-28T20:33:44.686Z,80.14
2022-10-28T20:36:27.399Z,78.16
2022-10-28T20:38:56.471Z,78.52
2022-10-28T20:41:25.432Z,78.42
2022-10-28T20:43:54.487Z,78.45
2022-10-28T20:46:23.461Z,78.99
2022-10-28T20:48:54.093Z,79.96
2022-10-28T20:51:25.751Z,81.67
2022-10-28T20:53:53.894Z,82.32
2022-10-28T20:56:24.687Z,82.23
2022-10-28T20:58:54.017Z,82.82
2022-10-28T21:01:24.325Z,83.23
2022-10-28T21:03:55.216Z,84.67
2022-10-28T21:06:25.266Z,83.93
2022-10-28T21:08:54.693Z,84.18
2022-10-28T21:11:23.744Z,84.53
2022-10-28T21:13:53.264Z,82.38
2022-10-28T21:16:21.989Z,83.74
2022-10-28T21:18:50.574Z,82.68
2022-10-28T21:21:19.618Z,83.43
2022-10-28T21:23:49.193Z,85.49
2022-10-28T21:26:17.493Z,84.14
2022-10-28T21:28:45.607Z,85.99
2022-10-28T21:31:16.332Z,86.85
2022-10-28T21:33:45.105Z,86.67
2022-10-28T21:36:15.580Z,87.23
2022-10-28T21:38:44.213Z,88.13
2022-10-28T21:41:15.826Z,86.92
2022-10-28T21:43:47.815Z,87.74
2022-10-28T21:46:16.334Z,89.49
2022-10-28T21:48:44.766Z,88.40
2022-10-28T21:51:15.470Z,86.35
2022-10-28T21:53:45.282Z,87.43
2022-10-28T21:56:18.505Z,88.20
2022-10-28T21:59:05.789Z,89.05
2022-10-28T22:01:34.057Z,88.58
2022-10-28T22:04:02.172Z,88.68
2022-10-28T22:06:30.279Z,89.94
2022-10-28T22:08:59.391Z,90.98
2022-10-28T22:11:28.871Z,92.20
2022-10-28T22:13:58.533Z,91.86
2022-10-28T22:16:27.653Z,92.14
2022-10-28T22:18:56.374Z,93.17
2022-10-28T22:21:26.135Z,96.49
2022-10-28T22:23:54.278Z,94.56
2022-10-28T22:26:23.623Z,94.97
2022-10-28T22:28:53.825Z,95.27
2022-10-28T22:31:23.982Z,95.07
2022-10-28T22:33:54.163Z,92.70
2022-10-28T22:36:24.444Z,89.59
2022-10-28T22:38:53.189Z,86.08
2022-10-28T22:41:23.840Z,85.92
2022-10-28T22:43:55.069Z,84.33
2022-10-28T22:46:24.054Z,83.87
2022-10-28T22:48:52.111Z,83.32
2022-10-28T22:51:20.471Z,82.18
2022-10-28T22:53:48.740Z,82.58
2022-10-28T22:56:20.317Z,81.87
2022-10-28T22:58:48.985Z,81.07
2022-10-28T23:01:20.247Z,78.26
2022-10-28T23:03:50.395Z,78.50
2022-10-28T23:06:20.406Z,78.97
2022-10-28T23:08:48.887Z,78.03
2022-10-28T23:11:18.822Z,79.33
2022-10-28T23:13:46.975Z,78.64
2022-10-28T23:16:16.404Z,76.87
2022-10-28T23:18:46.054Z,78.28
2022-10-28T23:21:15.754Z,79.77
2022-10-28T23:23:49.720Z,80.21
2022-10-28T23:26:21.473Z,79.34
2022-10-28T23:28:52.651Z,78.79
2022-10-28T23:31:21.475Z,76.14
2022-10-28T23:33:51.630Z,76.80
2022-10-28T23:36:19.954Z,75.78
2022-10-28T23:38:48.095Z,76.61
2022-10-28T23:41:19.017Z,76.77
2022-10-28T23:43:48.842Z,76.68
2022-10-28T23:46:17.324Z,76.14
2022-10-28T23:48:45.458Z,76.27
2022-10-28T23:51:15.337Z,75.55
2022-10-28T23:53:43.600Z,75.86
2022-10-28T23:56:12.038Z,76.60
2022-10-28T23:58:40.080Z,75.86
